.
WxDataArchive / Data Records for 2008-11-27
2008-11-26 November 2008 2008-11-28

Data Records for Thursday, 27 November 2008

Time	Temp	Chill	HIndex	Humid	Dewpt	 Wind 	HiWind	WindDir	Rain 	Barom 
-----	----	-----	------	-----	-----	------	------	-------	-----	----- 
00:00	23.2	23.2	23.2	87	19.9	0	0	---	0.00	29.976 
00:05	23.0	23.0	23.0	87	19.7	0	0	---	0.00	29.972 
00:10	23.0	23.0	23.0	87	19.7	0	0	---	0.00	29.973 
00:15	22.9	22.9	22.9	88	19.9	0	0	---	0.00	29.971 
00:20	22.7	22.7	22.7	88	19.7	0	0	---	0.00	29.969 
00:25	22.5	22.5	22.5	88	19.5	0	0	---	0.00	29.967 
00:30	22.5	22.5	22.5	88	19.5	0	0	---	0.00	29.968 
00:35	22.7	22.7	22.7	88	19.7	0	0	---	0.00	29.969 
00:40	22.5	22.5	22.5	88	19.5	0	0	---	0.00	29.969 
00:45	22.5	22.5	22.5	88	19.5	0	0	---	0.00	29.973 
00:50	22.4	22.4	22.4	88	19.4	0	0	---	0.00	29.972 
00:55	22.2	22.2	22.2	88	19.2	0	0	---	0.00	29.970 
01:00	22.2	22.2	22.2	88	19.2	0	0	---	0.00	29.967 
01:05	21.9	21.9	21.9	88	18.9	0	0	---	0.00	29.964 
01:10	21.9	21.9	21.9	88	18.9	0	0	---	0.00	29.964 
01:15	21.8	21.8	21.8	89	19.1	0	0	---	0.00	29.963 
01:20	21.6	21.6	21.6	89	18.9	0	0	---	0.00	29.962 
01:25	21.6	21.6	21.6	89	18.9	0	0	---	0.00	29.963 
01:30	21.4	21.4	21.4	89	18.7	0	0	---	0.00	29.964 
01:35	21.4	21.4	21.4	89	18.7	0	0	---	0.00	29.965 
01:40	21.3	21.3	21.3	89	18.6	0	0	---	0.00	29.964 
01:45	21.3	21.3	21.3	89	18.6	0	0	---	0.00	29.966 
01:50	21.3	21.3	21.3	89	18.6	0	0	---	0.00	29.966 
01:55	21.1	21.1	21.1	89	18.4	0	0	---	0.00	29.965 
02:00	21.1	21.1	21.1	89	18.4	0	0	---	0.00	29.965 
02:05	21.0	21.0	21.0	89	18.3	0	0	---	0.00	29.967 
02:10	20.8	20.8	20.8	89	18.1	0	0	---	0.00	29.967 
02:15	20.6	20.6	20.6	89	17.9	0	0	---	0.00	29.969 
02:20	20.6	20.6	20.6	89	17.9	0	0	---	0.00	29.972 
02:25	20.6	20.6	20.6	90	18.1	0	0	---	0.00	29.973 
02:30	20.5	20.5	20.5	90	18.0	0	0	---	0.00	29.973 
02:35	20.5	20.5	20.5	90	18.0	0	0	---	0.00	29.972 
02:40	20.5	20.5	20.5	90	18.0	0	0	---	0.00	29.975 
02:45	20.3	20.3	20.3	90	17.8	0	0	---	0.00	29.975 
02:50	20.3	20.3	20.3	90	17.8	0	0	---	0.00	29.971 
02:55	20.2	20.2	20.2	90	17.7	0	0	---	0.00	29.969 
03:00	20.0	20.0	20.0	90	17.5	0	0	---	0.00	29.969 
03:05	20.0	20.0	20.0	90	17.5	0	0	---	0.00	29.972 
03:10	20.0	20.0	20.0	90	17.5	0	0	---	0.00	29.973 
03:15	20.0	20.0	20.0	90	17.5	0	0	---	0.00	29.975 
03:20	19.9	19.9	19.9	90	17.5	0	0	---	0.00	29.978 
03:25	19.9	19.9	19.9	90	17.5	0	0	---	0.00	29.979 
03:30	19.9	19.9	19.9	90	17.5	0	0	---	0.00	29.980 
03:35	19.9	19.9	19.9	90	17.5	0	0	---	0.00	29.980 
03:40	19.7	19.7	19.7	90	17.3	0	0	---	0.00	29.980 
03:45	19.7	19.7	19.7	90	17.3	0	0	---	0.00	29.980 
03:50	19.7	19.7	19.7	90	17.3	0	0	---	0.00	29.979 
03:55	19.5	19.5	19.5	90	17.1	0	0	---	0.00	29.979 
04:00	19.4	19.4	19.4	90	17.0	0	0	---	0.00	29.981 
04:05	19.4	19.4	19.4	90	17.0	0	0	---	0.00	29.983 
04:10	19.2	19.2	19.2	90	16.8	0	0	---	0.00	29.983 
04:15	19.2	19.2	19.2	90	16.8	0	0	---	0.00	29.984 
04:20	19.2	19.2	19.2	90	16.8	0	0	---	0.00	29.984 
04:25	19.1	19.1	19.1	90	16.7	0	0	---	0.00	29.985 
04:30	19.1	19.1	19.1	90	16.7	0	0	---	0.00	29.984 
04:35	19.1	19.1	19.1	90	16.7	0	0	---	0.00	29.985 
04:40	18.9	18.9	18.9	90	16.5	0	0	---	0.00	29.989 
04:45	18.9	18.9	18.9	90	16.5	0	0	---	0.00	29.991 
04:50	18.9	18.9	18.9	90	16.5	0	0	---	0.00	29.993 
04:55	18.8	18.8	18.8	90	16.4	0	0	---	0.00	29.993 
05:00	18.8	18.8	18.8	90	16.4	0	0	---	0.00	29.993 
05:05	18.8	18.8	18.8	90	16.4	0	0	---	0.00	29.996 
05:10	18.8	18.8	18.8	90	16.4	0	0	---	0.00	29.996 
05:15	18.6	18.6	18.6	90	16.2	0	0	---	0.00	29.995 
05:20	18.4	18.4	18.4	90	16.0	0	0	---	0.00	29.997 
05:25	18.4	18.4	18.4	90	16.0	0	0	---	0.00	29.996 
05:30	18.3	18.3	18.3	90	15.9	0	0	---	0.00	29.994 
05:35	18.4	18.4	18.4	90	16.0	0	0	---	0.00	29.995 
05:40	18.4	18.4	18.4	91	16.2	0	0	---	0.00	29.995 
05:45	18.6	18.6	18.6	91	16.4	0	0	---	0.00	29.995 
05:50	18.6	18.6	18.6	91	16.4	0	0	---	0.00	29.995 
05:55	18.4	18.4	18.4	90	16.0	0	0	---	0.00	29.998 
06:00	18.4	18.4	18.4	90	16.0	0	0	---	0.00	29.998 
06:05	18.3	18.3	18.3	90	15.9	0	0	---	0.00	29.998 
06:10	18.1	18.1	18.1	90	15.7	0	0	---	0.00	29.999 
06:15	18.1	18.1	18.1	90	15.7	0	0	---	0.00	30.002 
06:20	18.0	18.0	18.0	90	15.6	0	0	---	0.00	30.001 
06:25	17.8	17.8	17.8	90	15.4	0	0	---	0.00	29.999 
06:30	17.8	17.8	17.8	90	15.4	0	0	---	0.00	29.994 
06:35	17.8	17.8	17.8	90	15.4	0	0	---	0.00	29.993 
06:40	17.8	17.8	17.8	90	15.4	0	0	---	0.00	29.994 
06:45	17.8	17.8	17.8	90	15.4	0	0	---	0.00	29.997 
06:50	17.8	17.8	17.8	90	15.4	0	0	---	0.00	29.996 
06:55	17.8	17.8	17.8	90	15.4	0	0	---	0.00	29.997 
07:00	18.0	18.0	18.0	91	15.8	0	0	---	0.00	29.994 
07:05	18.0	18.0	18.0	91	15.8	0	0	---	0.00	29.996 
07:10	18.0	18.0	18.0	91	15.8	0	0	---	0.00	29.998 
07:15	18.1	18.1	18.1	90	15.7	0	0	---	0.00	29.995 
07:20	18.0	18.0	18.0	90	15.6	0	0	---	0.00	29.996 
07:25	18.0	18.0	18.0	90	15.6	0	0	---	0.00	29.993 
07:30	17.8	17.8	17.8	90	15.4	0	0	---	0.00	29.993 
07:35	17.7	17.7	17.7	90	15.3	0	0	---	0.00	29.991 
07:40	17.7	17.7	17.7	90	15.3	0	0	---	0.00	29.992 
07:45	17.7	17.7	17.7	90	15.3	0	0	---	0.00	29.992 
07:50	17.7	17.7	17.7	90	15.3	0	0	---	0.00	29.992 
07:55	17.7	17.7	17.7	90	15.3	0	0	---	0.00	29.993 
08:00	17.8	17.8	17.8	90	15.4	0	0	---	0.00	29.992 
08:05	18.0	18.0	18.0	91	15.8	0	0	---	0.00	29.994 
08:10	18.1	18.1	18.1	91	15.9	0	0	---	0.00	29.994 
08:15	18.4	18.4	18.4	91	16.2	0	0	---	0.00	29.994 
08:20	18.6	18.6	18.6	91	16.4	0	0	---	0.00	29.995 
08:25	18.6	18.6	18.6	91	16.4	0	0	---	0.00	29.994 
08:30	18.9	18.9	18.9	91	16.7	0	0	---	0.00	29.996 
08:35	19.2	19.2	19.2	91	17.0	0	0	---	0.00	29.993 
08:40	19.7	19.7	19.7	91	17.5	0	0	---	0.00	29.995 
08:45	20.3	20.3	20.3	92	18.4	0	0	---	0.00	29.994 
08:50	21.0	21.0	21.0	92	19.0	0	0	---	0.00	29.991 
08:55	21.8	21.8	21.8	92	19.8	0	0	---	0.00	29.992 
09:00	23.0	23.0	23.0	93	21.3	0	0	---	0.00	29.991 
09:05	23.8	23.8	23.8	93	22.1	0	0	---	0.00	29.994 
09:10	24.5	24.5	24.5	93	22.8	0	0	---	0.00	30.001 
09:15	25.1	25.1	25.1	93	23.4	0	0	---	0.00	29.995 
09:20	25.8	25.8	25.8	94	24.3	0	0	---	0.00	29.991 
09:25	26.7	26.7	26.7	94	25.2	0	0	---	0.00	29.987 
09:30	27.2	27.2	27.2	94	25.7	0	3	248	0.00	29.986 
09:35	27.6	27.6	27.6	93	25.8	0	1	248	0.00	29.982 
09:40	28.1	28.1	28.1	93	26.3	0	1	248	0.00	29.979 
09:45	28.5	28.5	28.5	93	26.7	0	1	248	0.00	29.973 
09:50	29.0	29.0	29.0	92	27.0	0	1	248	0.00	29.970 
09:55	29.4	29.4	29.4	92	27.4	0	1	248	0.00	29.971 
10:00	29.7	29.7	29.7	91	27.4	0	1	248	0.00	29.970 
10:05	30.3	30.3	30.3	90	27.7	0	0	---	0.00	29.972 
10:10	30.7	30.7	30.7	90	28.1	0	2	248	0.00	29.971 
10:15	31.3	31.3	31.3	88	28.2	0	2	248	0.00	29.970 
10:20	31.8	31.8	31.8	86	28.1	0	2	248	0.00	29.966 
10:25	32.1	32.1	32.1	85	28.1	0	1	248	0.00	29.968 
10:30	32.4	32.4	32.4	83	27.8	1	3	248	0.00	29.975 
10:35	32.8	32.8	32.8	81	27.6	1	3	248	0.00	29.973 
10:40	33.1	33.1	33.1	80	27.6	1	4	248	0.00	29.978 
10:45	33.5	33.5	33.5	78	27.4	1	4	248	0.00	29.970 
10:50	34.0	34.0	34.0	78	27.9	1	4	270	0.00	29.967 
10:55	34.6	34.6	34.6	76	27.8	1	3	248	0.00	29.969 
11:00	35.0	35.0	35.0	74	27.6	1	3	248	0.00	29.967 
11:05	35.8	35.8	35.8	72	27.7	1	4	248	0.00	29.968 
11:10	36.2	36.2	36.2	71	27.7	1	3	248	0.00	29.969 
11:15	36.6	36.6	36.6	71	28.1	1	5	225	0.00	29.963 
11:20	37.0	37.0	37.0	67	27.1	2	8	248	0.00	29.963 
11:25	37.3	37.3	37.3	67	27.4	2	7	248	0.00	29.963 
11:30	37.8	37.8	37.8	66	27.5	2	5	248	0.00	29.963 
11:35	38.2	38.2	38.2	65	27.5	2	6	248	0.00	29.960 
11:40	38.5	38.5	38.5	65	27.8	1	4	248	0.00	29.956 
11:45	38.9	38.9	38.9	65	28.2	1	5	248	0.00	29.950 
11:50	39.3	39.3	39.3	64	28.2	1	9	225	0.00	29.946 
11:55	39.3	39.3	39.3	62	27.4	2	5	248	0.00	29.946 
12:00	39.5	39.5	39.5	62	27.6	2	7	225	0.00	29.946 
12:05	39.6	39.6	39.6	62	27.7	2	9	248	0.00	29.944 
12:10	39.9	39.9	39.9	61	27.6	2	6	248	0.00	29.942 
12:15	40.5	40.5	40.5	61	28.1	1	5	248	0.00	29.936 
12:20	40.8	40.8	40.8	59	27.6	3	7	248	0.00	29.935 
12:25	40.9	40.9	40.9	58	27.3	3	9	248	0.00	29.930 
12:30	41.1	41.1	41.1	60	28.3	2	8	225	0.00	29.925 
12:35	41.3	41.3	41.3	57	27.2	2	9	248	0.00	29.919 
12:40	41.5	41.5	41.5	58	27.8	2	5	248	0.00	29.914 
12:45	41.3	41.3	41.3	58	27.7	1	5	248	0.00	29.912 
12:50	41.1	41.1	41.1	58	27.5	2	6	248	0.00	29.913 
12:55	41.2	41.2	41.2	58	27.6	2	5	248	0.00	29.911 
13:00	41.6	41.6	41.6	58	27.9	2	6	248	0.00	29.900 
13:05	41.9	41.9	41.9	57	27.8	1	4	248	0.00	29.906 
13:10	42.1	42.1	42.1	56	27.5	3	7	248	0.00	29.902 
13:15	42.2	42.2	42.2	55	27.2	3	7	248	0.00	29.899 
13:20	42.3	42.3	42.3	55	27.3	3	9	248	0.00	29.898 
13:25	42.8	42.8	42.8	56	28.2	2	6	248	0.00	29.894 
13:30	43.1	43.1	43.1	57	28.9	2	5	248	0.00	29.895 
13:35	43.3	43.3	43.3	56	28.7	2	9	248	0.00	29.895 
13:40	43.3	43.3	43.3	55	28.2	2	6	248	0.00	29.894 
13:45	43.2	43.2	43.2	55	28.1	3	9	270	0.00	29.884 
13:50	43.2	43.2	43.2	55	28.1	2	6	248	0.00	29.881 
13:55	43.3	43.3	43.3	54	27.8	3	8	248	0.00	29.881 
14:00	43.5	43.5	43.5	54	28.0	2	5	248	0.00	29.877 
14:05	43.6	43.6	43.6	55	28.5	1	4	225	0.00	29.875 
14:10	43.8	43.8	43.8	54	28.3	2	7	248	0.00	29.868 
14:15	44.1	44.1	44.1	55	29.0	2	5	270	0.00	29.868 
14:20	44.2	44.2	44.2	54	28.6	2	9	248	0.00	29.868 
14:25	44.2	44.2	44.2	54	28.6	2	6	248	0.00	29.866 
14:30	44.3	44.3	44.3	55	29.2	1	7	270	0.00	29.864 
14:35	44.5	44.5	44.5	55	29.3	1	4	225	0.00	29.860 
14:40	44.8	44.8	44.8	54	29.2	2	7	248	0.00	29.857 
14:45	44.9	44.9	44.9	53	28.8	2	7	248	0.00	29.849 
14:50	45.1	45.1	45.1	52	28.5	2	6	248	0.00	29.849 
14:55	45.2	45.2	45.2	51	28.2	3	9	248	0.00	29.854 
15:00	45.5	45.5	45.5	51	28.4	2	4	248	0.00	29.851 
15:05	45.7	45.7	45.7	50	28.1	3	7	248	0.00	29.851 
15:10	45.4	45.4	45.4	51	28.3	3	9	248	0.00	29.851 
15:15	45.2	45.2	45.2	50	27.7	3	9	248	0.00	29.849 
15:20	44.9	43.0	44.9	51	27.9	4	13	248	0.00	29.848 
15:25	44.8	44.8	44.8	51	27.8	3	10	248	0.00	29.847 
15:30	44.6	44.6	44.6	52	28.1	3	7	248	0.00	29.845 
15:35	44.8	44.8	44.8	52	28.3	3	7	248	0.00	29.847 
15:40	44.6	44.6	44.6	52	28.1	2	7	248	0.00	29.846 
15:45	44.6	42.6	44.6	53	28.5	4	10	248	0.00	29.839 
15:50	44.6	44.6	44.6	53	28.5	3	10	248	0.00	29.833 
15:55	44.5	44.5	44.5	54	28.9	3	6	248	0.00	29.834 
16:00	44.6	44.6	44.6	54	29.0	3	9	248	0.00	29.836 
16:05	44.8	44.8	44.8	54	29.2	3	7	248	0.00	29.835 
16:10	44.9	44.9	44.9	54	29.3	2	5	248	0.00	29.835 
16:15	44.9	44.9	44.9	54	29.3	2	5	248	0.00	29.834 
16:20	44.8	44.8	44.8	55	29.6	3	7	248	0.00	29.834 
16:25	44.6	44.6	44.6	55	29.4	1	3	248	0.00	29.832 
16:30	44.5	44.5	44.5	55	29.3	2	9	248	0.00	29.834 
16:35	44.5	44.5	44.5	54	28.9	3	11	248	0.00	29.834 
16:40	44.3	44.3	44.3	55	29.2	1	4	225	0.00	29.834 
16:45	44.2	44.2	44.2	55	29.1	2	6	248	0.00	29.832 
16:50	43.9	43.9	43.9	55	28.8	1	5	248	0.00	29.827 
16:55	43.8	43.8	43.8	55	28.7	3	7	248	0.00	29.822 
17:00	43.6	43.6	43.6	55	28.5	2	6	248	0.00	29.822 
17:05	43.3	43.3	43.3	56	28.7	3	7	248	0.00	29.821 
17:10	43.2	43.2	43.2	56	28.6	2	7	248	0.00	29.823 
17:15	42.9	42.9	42.9	57	28.7	1	4	248	0.00	29.821 
17:20	42.8	42.8	42.8	57	28.6	1	5	248	0.00	29.823 
17:25	42.5	42.5	42.5	58	28.8	2	7	248	0.00	29.824 
17:30	42.3	42.3	42.3	58	28.6	2	5	248	0.00	29.824 
17:35	42.2	42.2	42.2	58	28.5	2	6	248	0.00	29.828 
17:40	42.1	42.1	42.1	59	28.8	1	4	248	0.00	29.831 
17:45	41.8	41.8	41.8	60	28.9	1	3	248	0.00	29.832 
17:50	41.5	41.5	41.5	61	29.1	2	6	248	0.00	29.830 
17:55	41.5	41.5	41.5	61	29.1	3	10	248	0.00	29.832 
18:00	41.5	41.5	41.5	61	29.1	3	11	248	0.00	29.832 
18:05	41.3	41.3	41.3	62	29.3	3	6	248	0.00	29.835 
18:10	41.1	41.1	41.1	62	29.1	3	11	248	0.00	29.834 
18:15	40.9	40.9	40.9	62	28.9	2	6	248	0.00	29.834 
18:20	40.6	40.6	40.6	63	29.0	2	6	248	0.00	29.831 
18:25	40.5	40.5	40.5	63	28.9	3	9	248	0.00	29.829 
18:30	40.3	40.3	40.3	64	29.1	3	7	248	0.00	29.825 
18:35	40.2	40.2	40.2	64	29.0	2	6	248	0.00	29.824 
18:40	39.9	39.9	39.9	65	29.1	3	6	248	0.00	29.825 
18:45	39.9	39.9	39.9	65	29.1	3	7	248	0.00	29.827 
18:50	39.6	39.6	39.6	65	28.8	3	10	248	0.00	29.831 
18:55	39.5	39.5	39.5	66	29.1	3	13	248	0.00	29.835 
19:00	39.5	39.5	39.5	66	29.1	3	7	248	0.00	29.835 
19:05	39.2	39.2	39.2	67	29.2	3	6	270	0.00	29.835 
19:10	39.2	39.2	39.2	67	29.2	3	10	270	0.00	29.834 
19:15	39.1	36.3	39.1	67	29.1	4	9	270	0.00	29.831 
19:20	39.1	36.3	39.1	67	29.1	4	10	248	0.00	29.830 
19:25	38.9	38.9	38.9	67	28.9	3	6	248	0.00	29.832 
19:30	38.9	36.0	38.9	67	28.9	4	11	248	0.00	29.833 
19:35	38.8	35.9	38.8	67	28.8	4	9	248	0.00	29.831 
19:40	38.6	38.6	38.6	68	29.0	3	7	248	0.00	29.832 
19:45	38.5	38.5	38.5	68	28.9	3	9	248	0.00	29.825 
19:50	38.3	38.3	38.3	68	28.7	3	9	248	0.00	29.826 
19:55	38.3	38.3	38.3	68	28.7	3	10	248	0.00	29.829 
20:00	38.2	35.2	38.2	68	28.6	4	7	270	0.00	29.830 
20:05	38.2	38.2	38.2	68	28.6	2	4	248	0.00	29.832 
20:10	38.0	35.0	38.0	68	28.4	4	7	248	0.00	29.830 
20:15	38.0	38.0	38.0	68	28.4	3	7	270	0.00	29.826 
20:20	37.9	34.9	37.9	68	28.3	4	10	270	0.00	29.824 
20:25	37.9	37.9	37.9	68	28.3	3	6	248	0.00	29.826 
20:30	37.8	37.8	37.8	69	28.6	3	7	270	0.00	29.824 
20:35	37.8	34.8	37.8	68	28.2	4	9	248	0.00	29.822 
20:40	37.8	34.8	37.8	68	28.2	4	10	270	0.00	29.824 
20:45	37.6	37.6	37.6	68	28.0	3	10	270	0.00	29.824 
20:50	37.5	37.5	37.5	68	27.9	3	11	270	0.00	29.827 
20:55	37.3	37.3	37.3	68	27.7	3	7	248	0.00	29.827 
21:00	37.2	37.2	37.2	68	27.6	2	6	248	0.00	29.829 
21:05	37.0	37.0	37.0	68	27.4	3	9	270	0.00	29.825 
21:10	37.0	37.0	37.0	68	27.4	3	10	270	0.00	29.824 
21:15	36.9	36.9	36.9	68	27.3	3	5	270	0.00	29.829 
21:20	36.8	36.8	36.8	69	27.6	2	7	270	0.00	29.830 
21:25	36.6	36.6	36.6	69	27.4	2	7	248	0.00	29.830 
21:30	36.5	36.5	36.5	69	27.3	2	6	270	0.00	29.831 
21:35	36.3	36.3	36.3	69	27.1	2	10	270	0.00	29.831 
21:40	36.3	36.3	36.3	70	27.5	2	6	270	0.00	29.833 
21:45	36.5	36.5	36.5	69	27.3	2	5	248	0.00	29.834 
21:50	36.6	36.6	36.6	69	27.4	2	7	270	0.00	29.836 
21:55	36.8	36.8	36.8	69	27.6	2	5	248	0.00	29.833 
22:00	36.9	36.9	36.9	69	27.7	2	4	270	0.00	29.833 
22:05	36.9	36.9	36.9	68	27.3	3	6	248	0.00	29.827 
22:10	36.9	36.9	36.9	68	27.3	3	7	248	0.00	29.826 
22:15	36.9	36.9	36.9	68	27.3	2	5	248	0.00	29.827 
22:20	36.9	36.9	36.9	68	27.3	1	4	270	0.00	29.826 
22:25	37.0	37.0	37.0	68	27.4	2	5	248	0.00	29.826 
22:30	37.0	37.0	37.0	68	27.4	2	4	270	0.00	29.825 
22:35	37.2	37.2	37.2	67	27.3	2	6	248	0.00	29.824 
22:40	37.3	37.3	37.3	67	27.4	2	5	270	0.00	29.825 
22:45	37.6	37.6	37.6	67	27.7	2	4	270	0.00	29.825 
22:50	37.8	37.8	37.8	67	27.8	2	6	270	0.00	29.823 
22:55	37.9	37.9	37.9	66	27.6	3	5	270	0.00	29.825 
23:00	38.0	38.0	38.0	66	27.7	3	6	270	0.00	29.827 
23:05	38.0	38.0	38.0	66	27.7	2	6	270	0.00	29.822 
23:10	37.9	37.9	37.9	67	27.9	2	4	270	0.00	29.821 
23:15	37.9	37.9	37.9	67	27.9	3	6	292	0.00	29.821 
23:20	37.9	37.9	37.9	66	27.6	3	5	270	0.00	29.821 
23:25	37.9	37.9	37.9	66	27.6	3	9	270	0.00	29.820 
23:30	37.8	37.8	37.8	67	27.8	2	4	248	0.00	29.818 
23:35	37.8	37.8	37.8	67	27.8	2	4	248	0.00	29.819 
23:40	37.6	37.6	37.6	66	27.3	2	4	270	0.00	29.818 
23:45	37.6	37.6	37.6	66	27.3	2	3	292	0.00	29.817 
23:50	37.6	37.6	37.6	67	27.7	2	3	248	0.00	29.818 
23:55	37.6	37.6	37.6	66	27.3	2	4	270	0.00	29.815 

CoCoRaHS
IN-AL-39
A2 Web Hosting
Creative Commons License
GoDaddy
search engine by freefind advanced

loaded 2018-11-19 10:55:49 • last modified 2010-11-18 10:43:29
Privacy PolicyDisclaimer
• wx.awcolley.com is powered by PmWiki v.2002016 •
• all content (unless otherwise noted) © 2018 A W Colley